Time;durP1;ratioP1;P1;durP2;ratioP2;P2;SDS_P1;SDS_P2;PMS_P1;PMS_P2;Temp;Humidity;BMP_temperature;BMP_pressure;BME280_temperature;BME280_humidity;BME280_pressure;Samples;Min_cycle;Max_cycle;Signal;HPM_P1;HPM_P2
2022/09/14 00:01:09;;;;;;;6.88;3.58;;;12.50;99.90;;;;;;5088109;28;20142;-50
2022/09/14 00:03:35;;;;;;;6.13;3.53;;;12.50;99.90;;;;;;5079684;28;20415;-48
2022/09/14 00:06:06;;;;;;;6.97;3.42;;;12.50;99.90;;;;;;5081153;28;20050;-46
2022/09/14 00:08:33;;;;;;;10.13;3.70;;;12.50;99.90;;;;;;5062136;28;20626;-51
2022/09/14 00:11:07;;;;;;;7.85;3.10;;;12.50;99.90;;;;;;5085410;28;20414;-46
2022/09/14 00:13:34;;;;;;;6.22;3.50;;;12.50;99.90;;;;;;5082367;28;20056;-46
2022/09/14 00:16:06;;;;;;;10.30;3.50;;;12.50;99.90;;;;;;5081147;28;20051;-45
2022/09/14 00:18:35;;;;;;;6.35;3.15;;;12.50;99.90;;;;;;5065148;28;20043;-48
2022/09/14 00:21:03;;;;;;;7.15;3.30;;;12.40;99.90;;;;;;5086500;28;20360;-49
2022/09/14 00:23:29;;;;;;;4.35;2.85;;;12.40;99.90;;;;;;5064378;27;20054;-46
2022/09/14 00:26:02;;;;;;;7.10;3.22;;;12.40;99.90;;;;;;5087795;27;21345;-47
2022/09/14 00:28:28;;;;;;;5.85;3.00;;;12.40;99.90;;;;;;5078344;27;20122;-51
2022/09/14 00:30:54;;;;;;;6.30;3.25;;;12.40;99.90;;;;;;5087097;27;20299;-46
2022/09/14 00:33:20;;;;;;;9.75;3.38;;;12.40;99.90;;;;;;5065913;27;21342;-48
2022/09/14 00:35:46;;;;;;;6.50;3.17;;;12.40;99.90;;;;;;5071600;28;20047;-49
2022/09/14 00:38:12;;;;;;;6.03;2.90;;;12.50;99.90;;;;;;5096665;28;20043;-50
2022/09/14 00:40:38;;;;;;;5.25;2.80;;;12.60;99.90;;;;;;5098900;28;20570;-49
2022/09/14 00:43:12;;;;;;;8.13;3.00;;;12.50;99.90;;;;;;5074014;27;20512;-49
2022/09/14 00:45:38;;;;;;;7.53;3.25;;;12.50;99.90;;;;;;5081801;27;20055;-49
2022/09/14 00:48:05;;;;;;;4.38;2.60;;;12.60;99.90;;;;;;5089471;27;20443;-45
2022/09/14 00:50:31;;;;;;;9.30;2.60;;;12.60;99.90;;;;;;5085008;27;20076;-45
2022/09/14 00:52:58;;;;;;;8.00;2.63;;;12.60;99.90;;;;;;5077130;28;20434;-48
2022/09/14 00:55:24;;;;;;;4.28;2.25;;;12.70;99.90;;;;;;5063958;28;20059;-50
2022/09/14 00:57:52;;;;;;;6.53;2.17;;;12.70;99.90;;;;;;5101174;27;20035;-50
2022/09/14 01:00:24;;;;;;;7.25;2.50;;;12.80;99.90;;;;;;5093474;27;20039;-48
2022/09/14 01:02:51;;;;;;;7.75;2.40;;;12.80;99.90;;;;;;5088737;27;20071;-48
2022/09/14 01:05:18;;;;;;;3.05;1.80;;;12.80;99.90;;;;;;5084271;27;21564;-46
2022/09/14 01:08:01;;;;;;;7.22;2.50;;;12.80;99.90;;;;;;5084021;27;20051;-43
2022/09/14 01:10:48;;;;;;;5.15;3.10;;;12.70;99.90;;;;;;5084375;27;20933;-45
2022/09/14 01:13:38;;;;;;;5.15;2.50;;;12.70;99.90;;;;;;5088369;27;20105;-51
2022/09/14 01:16:27;;;;;;;5.13;2.72;;;12.70;99.90;;;;;;5102537;27;20106;-46
2022/09/14 01:18:59;;;;;;;5.20;2.60;;;12.60;99.90;;;;;;5085698;27;20039;-51
2022/09/14 01:21:28;;;;;;;5.38;2.55;;;12.50;99.90;;;;;;5092430;27;20074;-45
2022/09/14 01:24:22;;;;;;;4.55;2.58;;;12.50;99.90;;;;;;5077616;28;20274;-50
2022/09/14 01:27:00;;;;;;;8.82;3.15;;;12.50;99.90;;;;;;5096131;28;20040;-48
2022/09/14 01:29:43;;;;;;;6.15;3.00;;;12.50;99.90;;;;;;5082152;28;20526;-46
2022/09/14 01:32:39;;;;;;;7.22;2.88;;;12.50;99.90;;;;;;5065751;27;20127;-51
2022/09/14 01:35:06;;;;;;;10.55;3.22;;;12.50;99.90;;;;;;5081315;27;20162;-49
2022/09/14 01:37:50;;;;;;;8.23;3.08;;;12.50;99.90;;;;;;5084437;27;20054;-50
2022/09/14 01:40:28;;;;;;;6.18;3.00;;;12.50;99.90;;;;;;5081805;27;20132;-50
2022/09/14 01:43:01;;;;;;;8.07;3.58;;;12.50;99.90;;;;;;5086331;27;20039;-48
2022/09/14 01:45:29;;;;;;;6.97;3.45;;;12.50;99.90;;;;;;5083042;27;20047;-51
2022/09/14 01:48:06;;;;;;;8.68;3.90;;;12.50;99.90;;;;;;5092559;27;20036;-45
2022/09/14 01:50:39;;;;;;;10.82;4.18;;;12.60;99.90;;;;;;5095499;28;20069;-50
2022/09/14 01:53:11;;;;;;;6.57;3.83;;;12.60;99.90;;;;;;5097997;28;20043;-50
2022/09/14 01:55:57;;;;;;;7.60;3.85;;;12.50;99.90;;;;;;5066951;27;20348;-52
2022/09/14 01:58:33;;;;;;;9.10;4.18;;;12.50;99.90;;;;;;5082071;27;20039;-49
2022/09/14 02:01:03;;;;;;;5.18;3.65;;;12.50;99.90;;;;;;5086615;27;20079;-49
2022/09/14 02:03:34;;;;;;;6.97;3.88;;;12.50;99.90;;;;;;5098925;28;20043;-49
2022/09/14 02:06:24;;;;;;;10.18;4.03;;;12.50;99.90;;;;;;5110977;27;20093;-51
2022/09/14 02:08:51;;;;;;;8.35;4.43;;;12.50;99.90;;;;;;5087388;27;20055;-51
2022/09/14 02:11:17;;;;;;;9.43;4.32;;;12.40;99.90;;;;;;5086839;27;20160;-48
2022/09/14 02:13:43;;;;;;;6.47;3.70;;;12.40;99.90;;;;;;5078694;27;20414;-49
2022/09/14 02:16:10;;;;;;;9.02;4.88;;;12.40;99.90;;;;;;5083194;27;20114;-45
2022/09/14 02:18:37;;;;;;;6.28;3.90;;;12.40;99.90;;;;;;5083290;27;20075;-48
2022/09/14 02:21:16;;;;;;;6.90;3.83;;;12.40;99.90;;;;;;5088205;27;20041;-47
2022/09/14 02:23:42;;;;;;;8.13;4.25;;;12.30;99.90;;;;;;5081817;27;20052;-46
2022/09/14 02:26:09;;;;;;;7.72;4.30;;;12.20;99.90;;;;;;5093621;27;20042;-46
2022/09/14 02:28:36;;;;;;;6.70;3.63;;;12.20;99.90;;;;;;5097203;28;20540;-48
2022/09/14 02:31:24;;;;;;;5.68;4.18;;;12.10;99.90;;;;;;5098732;28;20444;-49
2022/09/14 02:34:17;;;;;;;7.80;3.90;;;12.10;99.90;;;;;;5082418;27;20401;-47
2022/09/14 02:37:15;;;;;;;6.28;3.78;;;12.10;99.90;;;;;;5078718;27;20588;-50
2022/09/14 02:40:02;;;;;;;7.80;4.57;;;12.10;99.90;;;;;;5088163;27;20051;-45
2022/09/14 02:42:41;;;;;;;7.07;3.90;;;12.00;99.90;;;;;;5079343;28;20124;-47
2022/09/14 02:45:28;;;;;;;7.93;4.53;;;12.00;99.90;;;;;;5094529;28;20167;-48
2022/09/14 02:48:27;;;;;;;7.50;4.63;;;12.00;99.90;;;;;;5096055;28;20048;-48
2022/09/14 02:51:13;;;;;;;8.93;4.32;;;12.00;99.90;;;;;;5091549;27;20067;-47
2022/09/14 02:53:52;;;;;;;7.97;4.30;;;12.00;99.90;;;;;;5079900;28;20376;-47
2022/09/14 02:56:18;;;;;;;5.10;3.67;;;12.10;99.90;;;;;;5095885;28;20039;-50
2022/09/14 02:58:47;;;;;;;6.50;4.32;;;12.10;99.90;;;;;;5098383;28;20123;-48
2022/09/14 03:01:17;;;;;;;7.75;4.15;;;12.10;99.90;;;;;;5086960;27;20081;-49
2022/09/14 03:03:43;;;;;;;8.43;4.57;;;12.10;99.90;;;;;;5083693;27;20063;-51
2022/09/14 03:06:10;;;;;;;6.10;4.03;;;12.10;99.90;;;;;;5055613;28;20085;-52
2022/09/14 03:08:36;;;;;;;6.88;4.60;;;12.20;99.90;;;;;;5081627;27;21344;-49
2022/09/14 03:11:02;;;;;;;7.43;4.78;;;12.20;99.90;;;;;;5082888;28;20056;-47
2022/09/14 03:13:29;;;;;;;8.27;5.15;;;12.30;99.90;;;;;;5083568;28;20056;-47
2022/09/14 03:15:55;;;;;;;10.20;4.85;;;12.30;99.90;;;;;;5074441;28;20047;-51
2022/09/14 03:18:21;;;;;;;10.55;5.05;;;12.30;99.90;;;;;;5095919;28;20052;-48
2022/09/14 03:20:47;;;;;;;8.90;5.35;;;12.40;99.90;;;;;;5083043;28;20044;-51
2022/09/14 03:23:14;;;;;;;8.30;4.88;;;12.40;99.90;;;;;;5072266;28;20059;-51
2022/09/14 03:25:42;;;;;;;9.27;4.65;;;12.40;99.90;;;;;;5059464;28;20047;-51
2022/09/14 03:28:09;;;;;;;7.03;5.07;;;12.50;99.90;;;;;;5081811;28;20062;-51
2022/09/14 03:30:36;;;;;;;7.75;5.00;;;12.50;99.90;;;;;;5096588;28;20048;-51
2022/09/14 03:33:03;;;;;;;10.18;4.45;;;12.60;99.90;;;;;;5079285;28;20048;-49
2022/09/14 03:35:30;;;;;;;6.22;4.47;;;12.70;99.90;;;;;;5076273;28;20369;-51
2022/09/14 03:37:58;;;;;;;8.02;4.68;;;12.70;99.90;;;;;;5084462;28;20085;-50
2022/09/14 03:40:25;;;;;;;6.68;4.88;;;12.70;99.90;;;;;;5094242;27;20046;-47
2022/09/14 03:42:51;;;;;;;7.05;4.55;;;12.70;99.90;;;;;;5077055;28;20039;-51
2022/09/14 03:45:19;;;;;;;8.48;4.50;;;12.70;99.90;;;;;;5064818;28;20052;-48
2022/09/14 03:47:45;;;;;;;6.50;4.95;;;12.70;99.90;;;;;;5082760;28;20052;-46
2022/09/14 03:50:12;;;;;;;7.00;4.30;;;12.70;99.90;;;;;;5048518;28;20062;-48
2022/09/14 03:52:39;;;;;;;5.80;4.40;;;12.80;99.90;;;;;;5079234;28;20482;-49
2022/09/14 03:55:08;;;;;;;7.00;4.53;;;12.80;99.90;;;;;;5082277;28;20107;-47
2022/09/14 03:57:34;;;;;;;6.75;4.50;;;12.80;99.90;;;;;;5068746;28;20083;-47
2022/09/14 04:00:01;;;;;;;6.07;4.07;;;12.80;99.90;;;;;;5085667;27;20052;-48
2022/09/14 04:02:28;;;;;;;5.35;4.38;;;12.80;99.90;;;;;;5065564;27;21388;-46
2022/09/14 04:04:54;;;;;;;6.47;4.30;;;12.80;99.90;;;;;;5083446;27;20051;-47
2022/09/14 04:07:20;;;;;;;6.82;4.82;;;12.90;99.90;;;;;;5082523;27;20051;-49
2022/09/14 04:09:46;;;;;;;7.30;4.78;;;12.90;99.90;;;;;;5072929;27;20233;-47
2022/09/14 04:12:12;;;;;;;7.50;4.85;;;12.90;99.90;;;;;;5066268;27;20154;-46
2022/09/14 04:14:39;;;;;;;8.98;5.00;;;13.00;99.90;;;;;;5064876;27;20043;-49
2022/09/14 04:17:05;;;;;;;7.25;4.40;;;12.90;99.90;;;;;;5064473;27;20514;-47
2022/09/14 04:19:36;;;;;;;8.00;5.03;;;13.00;99.90;;;;;;5083227;27;20043;-49
2022/09/14 04:22:03;;;;;;;7.75;5.30;;;13.00;99.90;;;;;;5065471;27;20585;-50
2022/09/14 04:24:29;;;;;;;7.82;4.55;;;13.00;99.90;;;;;;5066098;27;21549;-52
2022/09/14 04:26:55;;;;;;;5.63;4.72;;;13.00;99.90;;;;;;5048237;27;20047;-47
2022/09/14 04:29:21;;;;;;;7.70;4.30;;;13.00;99.90;;;;;;5084118;27;20294;-48
2022/09/14 04:31:47;;;;;;;7.15;4.57;;;13.00;99.90;;;;;;5081576;27;20101;-53
2022/09/14 04:34:13;;;;;;;5.65;4.28;;;13.00;99.90;;;;;;5082420;27;20052;-52
2022/09/14 04:36:40;;;;;;;8.52;4.53;;;13.00;99.90;;;;;;5050243;27;20047;-48
2022/09/14 04:39:09;;;;;;;6.40;4.35;;;13.00;99.90;;;;;;5089998;27;20180;-48
2022/09/14 04:41:35;;;;;;;5.72;4.20;;;13.00;99.90;;;;;;5084578;27;20088;-50
2022/09/14 04:44:01;;;;;;;7.72;5.15;;;13.10;99.90;;;;;;5056209;28;20050;-48
2022/09/14 04:46:30;;;;;;;7.63;4.82;;;13.10;99.90;;;;;;5098172;28;20593;-48
2022/09/14 04:48:57;;;;;;;8.43;4.82;;;13.10;99.90;;;;;;5098975;28;20036;-46
2022/09/14 04:51:26;;;;;;;8.50;5.53;;;13.10;99.90;;;;;;5098025;28;20467;-47
2022/09/14 04:53:55;;;;;;;7.43;4.78;;;13.10;99.90;;;;;;5091646;27;21341;-49
2022/09/14 04:56:22;;;;;;;10.57;4.93;;;13.10;99.90;;;;;;5090875;27;20527;-47
2022/09/14 04:58:54;;;;;;;9.77;4.97;;;13.10;99.90;;;;;;5090571;28;20067;-48
2022/09/14 05:01:22;;;;;;;;;;;13.10;99.90;;;;;;5091837;27;20043;-49
2022/09/14 05:03:49;;;;;;;7.88;4.40;;;13.10;99.90;;;;;;5059017;28;19924;-48
2022/09/14 05:06:18;;;;;;;8.75;4.95;;;13.10;99.90;;;;;;5073239;28;20048;-47
2022/09/14 05:08:45;;;;;;;8.65;4.68;;;13.10;99.90;;;;;;5078612;28;20043;-54
2022/09/14 05:11:17;;;;;;;6.57;4.70;;;13.10;99.90;;;;;;5100340;28;20118;-53
2022/09/14 05:13:44;;;;;;;7.15;4.82;;;13.20;99.90;;;;;;5100621;28;20059;-50
2022/09/14 05:16:16;;;;;;;7.00;4.82;;;13.20;99.90;;;;;;5101036;28;20044;-52
2022/09/14 05:18:43;;;;;;;7.00;4.75;;;13.10;99.90;;;;;;5081727;28;20077;-54
2022/09/14 05:21:14;;;;;;;6.75;4.43;;;13.20;99.90;;;;;;5098322;28;20040;-49
2022/09/14 05:23:41;;;;;;;8.17;4.50;;;13.20;99.90;;;;;;5100941;28;20668;-52
2022/09/14 05:26:07;;;;;;;7.78;5.03;;;13.10;99.90;;;;;;5101943;28;20051;-53
2022/09/14 05:28:34;;;;;;;7.18;4.97;;;13.20;99.90;;;;;;5097011;28;20200;-52
2022/09/14 05:31:09;;;;;;;11.40;5.15;;;13.10;99.90;;;;;;5096363;28;20051;-53
2022/09/14 05:33:35;;;;;;;9.68;5.38;;;13.20;99.90;;;;;;5081399;28;20867;-48
2022/09/14 05:36:04;;;;;;;7.47;5.20;;;13.20;99.90;;;;;;5098206;28;20603;-49
2022/09/14 05:38:31;;;;;;;9.82;6.38;;;13.10;99.90;;;;;;5093304;28;20063;-53
2022/09/14 05:40:57;;;;;;;7.93;5.30;;;13.20;99.90;;;;;;5080427;28;20470;-52
2022/09/14 05:43:26;;;;;;;10.98;6.68;;;13.20;99.90;;;;;;5099647;28;20131;-54
2022/09/14 05:45:52;;;;;;;6.50;5.60;;;13.30;99.90;;;;;;5058292;28;20467;-55
2022/09/14 05:48:18;;;;;;;8.45;4.95;;;13.30;99.90;;;;;;5074735;28;20134;-54
2022/09/14 05:50:44;;;;;;;6.88;5.10;;;13.30;99.90;;;;;;5101528;28;20087;-50
2022/09/14 05:53:10;;;;;;;6.47;5.15;;;13.30;99.90;;;;;;5096737;28;20439;-46
2022/09/14 05:55:36;;;;;;;8.25;5.55;;;13.30;99.90;;;;;;5063552;28;20052;-45
2022/09/14 05:58:04;;;;;;;6.55;4.97;;;13.40;99.90;;;;;;5080996;28;20054;-45
2022/09/14 06:00:30;;;;;;;5.57;4.88;;;13.40;99.90;;;;;;5098794;28;20047;-47
2022/09/14 06:02:57;;;;;;;5.88;4.80;;;13.40;99.90;;;;;;5098090;28;20085;-49
2022/09/14 06:05:24;;;;;;;7.68;4.80;;;13.50;99.90;;;;;;5093502;28;20051;-49
2022/09/14 06:07:51;;;;;;;9.52;5.50;;;13.50;99.90;;;;;;5102885;27;20502;-45
2022/09/14 06:10:18;;;;;;;7.55;5.00;;;13.50;99.90;;;;;;5096835;28;20044;-47
2022/09/14 06:12:45;;;;;;;7.50;5.30;;;13.60;99.90;;;;;;5098680;28;20600;-49
2022/09/14 06:15:11;;;;;;;8.57;5.35;;;13.60;99.90;;;;;;5074245;28;20048;-49
2022/09/14 06:17:38;;;;;;;11.30;4.93;;;13.60;99.90;;;;;;5095799;28;20535;-55
2022/09/14 06:20:08;;;;;;;7.38;5.38;;;13.70;99.90;;;;;;5099888;28;20148;-54
2022/09/14 06:22:34;;;;;;;7.68;5.30;;;13.70;99.90;;;;;;5095999;28;20397;-55
2022/09/14 06:25:00;;;;;;;11.65;5.15;;;13.80;99.90;;;;;;5080537;28;20513;-54
2022/09/14 06:27:26;;;;;;;7.63;4.80;;;13.80;99.90;;;;;;5097278;28;20047;-54
2022/09/14 06:29:53;;;;;;;11.32;5.03;;;13.80;99.90;;;;;;5093470;27;20048;-55
2022/09/14 06:32:22;;;;;;;8.18;4.85;;;13.90;99.90;;;;;;5082325;28;20432;-53
2022/09/14 06:34:48;;;;;;;7.70;4.47;;;13.90;99.90;;;;;;5078951;28;20040;-57
2022/09/14 06:37:14;;;;;;;8.02;4.85;;;13.90;99.90;;;;;;5082265;28;20063;-56
2022/09/14 06:39:41;;;;;;;7.50;4.82;;;14.00;99.90;;;;;;5100806;27;20051;-46
2022/09/14 06:42:07;;;;;;;10.82;4.97;;;14.00;99.90;;;;;;5098826;28;20587;-47
2022/09/14 06:44:35;;;;;;;8.23;5.00;;;14.10;99.90;;;;;;5068364;28;20051;-47
2022/09/14 06:47:01;;;;;;;8.07;5.18;;;14.10;99.90;;;;;;5096348;28;20048;-43
2022/09/14 06:49:27;;;;;;;9.93;5.47;;;14.30;99.90;;;;;;5090501;28;20234;-47
2022/09/14 06:51:55;;;;;;;8.75;4.93;;;14.30;99.90;;;;;;5113611;27;20098;-44
2022/09/14 06:54:22;;;;;;;7.80;5.47;;;14.40;99.90;;;;;;5090692;28;20043;-48
2022/09/14 06:56:48;;;;;;;10.88;5.05;;;14.40;99.90;;;;;;5098074;28;20070;-46
2022/09/14 06:59:16;;;;;;;8.52;5.20;;;14.50;99.90;;;;;;5093947;28;20052;-47
2022/09/14 07:01:46;;;;;;;9.75;5.38;;;14.60;99.90;;;;;;5059931;28;20067;-45
2022/09/14 07:04:13;;;;;;;7.72;5.60;;;14.60;99.90;;;;;;5094452;28;20441;-48
2022/09/14 07:06:42;;;;;;;10.55;5.03;;;14.70;99.90;;;;;;5093393;28;20363;-45
2022/09/14 07:09:09;;;;;;;10.02;5.50;;;14.70;99.90;;;;;;5096419;28;20550;-47
2022/09/14 07:11:36;;;;;;;8.88;4.93;;;14.70;99.90;;;;;;5092175;28;20044;-46
2022/09/14 07:14:02;;;;;;;6.57;4.53;;;14.80;99.90;;;;;;5092118;28;20103;-46
2022/09/14 07:16:29;;;;;;;9.07;4.82;;;14.90;99.90;;;;;;5093543;28;20096;-47
2022/09/14 07:18:57;;;;;;;9.07;5.10;;;15.00;99.90;;;;;;5096699;28;20788;-46
2022/09/14 07:21:24;;;;;;;7.00;4.25;;;15.10;99.90;;;;;;5111745;27;20055;-47
2022/09/14 07:23:51;;;;;;;8.50;4.55;;;15.20;99.90;;;;;;5096400;28;20044;-60
2022/09/14 07:26:20;;;;;;;8.13;4.57;;;15.40;99.90;;;;;;5090865;28;20525;-62
2022/09/14 07:28:49;;;;;;;8.07;3.80;;;15.50;99.90;;;;;;5090635;28;20594;-60
2022/09/14 07:31:23;;;;;;;8.00;4.07;;;15.50;99.90;;;;;;5096728;28;20047;-59
2022/09/14 07:34:01;;;;;;;8.05;3.75;;;15.60;99.90;;;;;;5096699;28;20062;-49
2022/09/14 07:36:28;;;;;;;7.05;3.78;;;15.70;99.90;;;;;;5089492;28;20059;-59
2022/09/14 07:38:55;;;;;;;6.40;3.22;;;15.80;99.90;;;;;;5095803;28;20310;-59
2022/09/14 07:41:24;;;;;;;7.90;3.42;;;15.90;99.90;;;;;;5099105;28;20181;-59
2022/09/14 07:43:52;;;;;;;7.82;3.75;;;15.90;99.90;;;;;;5097603;28;20169;-59
2022/09/14 07:46:19;;;;;;;9.02;3.90;;;16.00;99.90;;;;;;5113946;27;20506;-59
2022/09/14 07:48:46;;;;;;;7.00;3.55;;;16.10;99.90;;;;;;5101228;27;20067;-59
2022/09/14 07:51:45;;;;;;;4.35;3.10;;;16.20;99.90;;;;;;5101842;27;20339;-59
2022/09/14 07:54:13;;;;;;;8.20;4.00;;;16.20;99.90;;;;;;5099066;28;20129;-48
2022/09/14 07:56:40;;;;;;;9.18;3.80;;;16.30;99.90;;;;;;5100165;28;20039;-46
2022/09/14 07:59:06;;;;;;;6.18;3.45;;;16.40;99.90;;;;;;5063261;28;20470;-50
2022/09/14 08:01:33;;;;;;;6.82;3.10;;;16.50;99.90;;;;;;5096395;28;20117;-46
2022/09/14 08:04:01;;;;;;;6.35;2.90;;;16.60;99.90;;;;;;5062589;28;20043;-45
2022/09/14 08:06:27;;;;;;;7.90;2.97;;;16.70;99.90;;;;;;5061810;28;20059;-48
2022/09/14 08:08:54;;;;;;;5.88;2.40;;;16.80;99.90;;;;;;5101722;28;20039;-47
2022/09/14 08:11:29;;;;;;;7.40;2.70;;;16.90;99.90;;;;;;5101210;28;20062;-47
2022/09/14 08:14:00;;;;;;;5.45;2.63;;;17.10;99.90;;;;;;5094281;28;20170;-46
2022/09/14 08:16:28;;;;;;;4.20;2.10;;;17.20;99.90;;;;;;5111232;27;20051;-45
2022/09/14 08:18:57;;;;;;;6.90;2.60;;;17.30;99.90;;;;;;5098009;28;20092;-48
2022/09/14 08:21:24;;;;;;;7.00;2.10;;;17.50;99.90;;;;;;5081238;28;20043;-43
2022/09/14 08:23:50;;;;;;;8.05;2.22;;;17.50;99.90;;;;;;5098831;28;20048;-44
2022/09/14 08:26:20;;;;;;;5.95;1.90;;;17.70;99.90;;;;;;5100602;28;20051;-59
2022/09/14 08:28:47;;;;;;;6.45;2.30;;;17.80;99.90;;;;;;5093834;28;20472;-49
2022/09/14 08:31:21;;;;;;;4.88;1.88;;;17.90;99.90;;;;;;5081229;28;20039;-59
2022/09/14 08:33:56;;;;;;;4.05;2.08;;;18.10;99.90;;;;;;5101677;28;20508;-60
2022/09/14 08:36:23;;;;;;;6.30;1.83;;;18.40;99.90;;;;;;5084212;28;20086;-60
2022/09/14 08:38:50;;;;;;;7.53;2.08;;;18.50;99.90;;;;;;5103084;28;20459;-58
2022/09/14 08:41:30;;;;;;;4.63;1.20;;;18.60;99.90;;;;;;5099607;28;20581;-60
2022/09/14 08:44:12;;;;;;;3.08;1.00;;;18.80;99.90;;;;;;5098755;28;20089;-59
2022/09/14 08:46:43;;;;;;;5.40;1.33;;;18.90;99.90;;;;;;5098658;27;20457;-60
2022/09/14 08:49:19;;;;;;;10.75;7.00;;;19.10;99.90;;;;;;5101654;28;20047;-60
2022/09/14 08:51:45;;;;;;;5.88;0.90;;;19.20;99.90;;;;;;5083982;28;20075;-60
2022/09/14 08:54:11;;;;;;;4.07;1.00;;;19.20;99.90;;;;;;5088250;28;20105;-60
2022/09/14 08:56:42;;;;;;;4.78;0.70;;;19.30;99.90;;;;;;5098749;28;20108;-60
2022/09/14 08:59:53;;;;;;;3.10;0.93;;;19.30;99.90;;;;;;5100187;28;20047;-60
2022/09/14 09:02:41;;;;;;;3.10;0.80;;;19.30;99.90;;;;;;5119469;27;20043;-60
2022/09/14 09:05:28;;;;;;;2.92;0.70;;;19.10;99.90;;;;;;5095809;27;20802;-60
2022/09/14 09:08:02;;;;;;;4.03;0.85;;;19.00;99.90;;;;;;5099468;28;20054;-61
2022/09/14 09:10:30;;;;;;;5.78;0.98;;;19.00;99.90;;;;;;5095467;28;20040;-60
2022/09/14 09:12:59;;;;;;;6.65;1.40;;;19.00;99.90;;;;;;5097130;28;20063;-47
2022/09/14 09:15:43;;;;;;;4.47;0.80;;;19.00;99.90;;;;;;5094911;28;20094;-58
2022/09/14 09:18:46;;;;;;;4.18;0.70;;;19.10;99.90;;;;;;5093735;28;20118;-59
2022/09/14 09:21:14;;;;;;;4.40;1.00;;;19.00;99.90;;;;;;5088088;28;20046;-58
2022/09/14 09:23:42;;;;;;;3.97;0.80;;;19.10;99.90;;;;;;5098911;28;20046;-59
2022/09/14 09:26:08;;;;;;;3.80;0.63;;;19.20;99.90;;;;;;5097467;28;20183;-59
2022/09/14 09:28:47;;;;;;;4.15;0.73;;;19.40;99.90;;;;;;5101062;28;20047;-58
2022/09/14 09:31:14;;;;;;;1.88;0.65;;;19.50;99.90;;;;;;5099158;28;20509;-58
2022/09/14 09:34:06;;;;;;;2.75;0.80;;;19.70;99.90;;;;;;5093166;28;20043;-46
2022/09/14 09:36:37;;;;;;;4.93;0.68;;;19.90;99.90;;;;;;5097982;28;20054;-47
2022/09/14 09:39:05;;;;;;;3.60;0.82;;;20.40;99.90;;;;;;5096583;28;21132;-57
2022/09/14 09:42:03;;;;;;;6.22;1.25;;;20.70;99.90;;;;;;5078622;28;20048;-59
2022/09/14 09:45:00;;;;;;;6.43;1.58;;;20.90;99.90;;;;;;5062406;28;20047;-58
2022/09/14 09:47:36;;;;;;;5.30;0.80;;;22.00;99.90;;;;;;5079211;28;20496;-60
2022/09/14 09:50:15;;;;;;;2.83;0.73;;;22.60;99.90;;;;;;5093029;28;20051;-58
2022/09/14 09:52:53;;;;;;;3.97;1.20;;;23.10;99.90;;;;;;5094195;28;20100;-57
2022/09/14 09:55:21;;;;;;;6.32;1.75;;;23.50;99.90;;;;;;5095147;28;20051;-45
2022/09/14 10:01:53;;;;;;;19.55;15.82;;;23.50;96.10;;;;;;5100950;28;20135;-48
2022/09/14 10:04:28;;;;;;;17.33;15.48;;;23.00;99.90;;;;;;5096690;28;20039;-48
2022/09/14 10:06:56;;;;;;;4.40;0.82;;;23.00;99.90;;;;;;5066551;28;20074;-49
2022/09/14 10:09:28;;;;;;;3.90;1.20;;;23.00;99.90;;;;;;5098244;27;20082;-48
2022/09/14 10:12:01;;;;;;;4.50;2.10;;;22.90;99.90;;;;;;5098429;28;20479;-57
2022/09/14 10:14:30;;;;;;;4.18;0.70;;;22.90;99.90;;;;;;5081581;28;20133;-47
2022/09/14 10:17:23;;;;;;;5.45;0.60;;;22.60;99.90;;;;;;5098876;28;20059;-44
2022/09/14 10:19:51;;;;;;;6.00;2.15;;;23.10;99.90;;;;;;5096274;28;20052;-44
2022/09/14 10:22:17;;;;;;;3.65;0.80;;;23.60;99.90;;;;;;5099094;28;20384;-47
2022/09/14 10:25:21;;;;;;;6.10;0.75;;;24.20;99.90;;;;;;5066935;28;20123;-47
2022/09/14 10:27:54;;;;;;;6.80;3.55;;;25.10;91.10;;;;;;5083749;28;20094;-44
2022/09/14 10:30:33;;;;;;;3.05;0.70;;;25.00;95.20;;;;;;5090720;28;20130;-47
2022/09/14 10:33:03;;;;;;;3.72;0.75;;;25.20;91.40;;;;;;5111444;27;20441;-44
2022/09/14 10:35:39;;;;;;;3.03;0.77;;;25.00;88.00;;;;;;5093058;28;20088;-43
2022/09/14 10:38:14;;;;;;;4.78;0.88;;;24.60;93.10;;;;;;5077329;28;20560;-43
2022/09/14 10:40:44;;;;;;;3.00;0.73;;;24.20;95.40;;;;;;5095617;28;20055;-56
2022/09/14 10:43:41;;;;;;;3.45;0.77;;;23.40;96.10;;;;;;5094372;28;20069;-55
2022/09/14 10:46:12;;;;;;;5.25;1.27;;;23.20;97.80;;;;;;5111658;27;20120;-55
2022/09/14 10:49:10;;;;;;;3.28;1.05;;;23.20;99.90;;;;;;5096163;28;20046;-57
2022/09/14 10:52:04;;;;;;;4.10;0.50;;;23.10;97.60;;;;;;5095581;28;20054;-55
2022/09/14 10:55:12;;;;;;;11.00;5.15;;;22.70;99.90;;;;;;5097212;28;20058;-55
2022/09/14 10:58:19;;;;;;;6.80;2.13;;;22.30;99.90;;;;;;5098279;28;20060;-44
2022/09/14 11:01:01;;;;;;;7.13;1.40;;;22.10;99.90;;;;;;5057447;28;20139;-47
2022/09/14 11:03:45;;;;;;;7.18;2.58;;;22.00;99.90;;;;;;5098801;28;20048;-44
2022/09/14 11:06:28;;;;;;;4.57;0.90;;;21.80;99.90;;;;;;5055701;28;20509;-43
2022/09/14 11:09:03;;;;;;;5.78;0.90;;;21.70;99.90;;;;;;5091133;28;20494;-44
2022/09/14 11:11:55;;;;;;;6.15;1.73;;;21.80;99.90;;;;;;5092977;28;20082;-44
2022/09/14 11:14:24;;;;;;;5.05;1.10;;;21.80;99.90;;;;;;5095560;28;20062;-48
2022/09/14 11:17:02;;;;;;;2.28;0.68;;;21.50;99.90;;;;;;5079657;28;20514;-49
2022/09/14 11:19:56;;;;;;;4.28;0.88;;;21.80;99.90;;;;;;5101790;27;20506;-56
2022/09/14 11:22:45;;;;;;;5.68;1.17;;;22.10;99.90;;;;;;5088788;28;20424;-56
2022/09/14 11:25:35;;;;;;;5.97;0.85;;;22.80;99.90;;;;;;5096755;28;20039;-56
2022/09/14 11:28:28;;;;;;;5.53;0.98;;;23.50;99.90;;;;;;5094068;28;20601;-56
2022/09/14 11:31:12;;;;;;;4.45;0.70;;;23.70;97.20;;;;;;5094324;28;20047;-44
2022/09/14 11:33:47;;;;;;;5.25;1.05;;;23.90;97.00;;;;;;5093748;28;20082;-57
2022/09/14 11:36:25;;;;;;;4.47;0.80;;;24.40;96.30;;;;;;5093476;28;20056;-57
2022/09/14 11:39:09;;;;;;;4.40;1.17;;;25.30;92.50;;;;;;5058643;28;20077;-44
2022/09/14 11:41:44;;;;;;;5.38;0.88;;;25.90;89.40;;;;;;5094991;28;20090;-46
2022/09/14 11:44:31;;;;;;;2.63;0.80;;;25.80;81.70;;;;;;5096147;28;20035;-55
2022/09/14 11:47:04;;;;;;;5.90;0.88;;;25.50;86.00;;;;;;5094164;28;20051;-45
2022/09/14 11:49:39;;;;;;;2.65;0.85;;;25.20;81.80;;;;;;5077961;28;20448;-46
2022/09/14 11:52:20;;;;;;;4.07;1.00;;;25.10;81.90;;;;;;5075637;28;20110;-44
2022/09/14 11:54:47;;;;;;;4.55;1.10;;;24.90;78.50;;;;;;5095971;28;20035;-47
2022/09/14 11:57:19;;;;;;;5.68;1.00;;;24.70;83.20;;;;;;5092949;28;20417;-45
2022/09/14 11:59:49;;;;;;;4.30;1.10;;;24.80;76.70;;;;;;5098101;28;20408;-43
2022/09/14 12:02:21;;;;;;;4.28;0.93;;;24.80;82.40;;;;;;5097127;28;20043;-45
2022/09/14 12:05:06;;;;;;;5.07;0.85;;;24.90;84.40;;;;;;5096290;28;20074;-45
2022/09/14 12:07:41;;;;;;;4.03;0.93;;;25.40;77.00;;;;;;5093358;28;20591;-44
2022/09/14 12:10:13;;;;;;;6.10;0.88;;;26.00;75.50;;;;;;5098973;28;20044;-44
2022/09/14 12:12:45;;;;;;;4.97;1.10;;;26.40;70.80;;;;;;5094250;28;20048;-43
2022/09/14 12:15:23;;;;;;;7.78;1.30;;;26.40;71.10;;;;;;5095466;28;20610;-46
2022/09/14 12:18:22;;;;;;;5.53;0.90;;;26.50;67.70;;;;;;5094499;28;20082;-45
2022/09/14 12:21:01;;;;;;;5.10;1.20;;;26.60;66.20;;;;;;5105490;27;20359;-44
2022/09/14 12:23:36;;;;;;;4.68;1.30;;;26.80;63.30;;;;;;5097577;28;20043;-43
2022/09/14 12:26:05;;;;;;;4.07;1.33;;;26.90;64.10;;;;;;5091017;28;20464;-45
2022/09/14 12:28:34;;;;;;;5.28;1.00;;;26.50;65.50;;;;;;5097832;28;20048;-45
2022/09/14 12:31:03;;;;;;;4.70;1.13;;;26.70;63.90;;;;;;5100495;28;20561;-57
2022/09/14 12:33:32;;;;;;;3.78;0.70;;;26.30;63.60;;;;;;5098308;28;20047;-57
2022/09/14 12:36:06;;;;;;;3.22;0.80;;;26.00;62.90;;;;;;5094179;28;20044;-57
2022/09/14 12:38:35;;;;;;;4.30;0.93;;;25.90;62.60;;;;;;5065824;28;20046;-56
2022/09/14 12:41:21;;;;;;;5.85;0.95;;;25.50;64.80;;;;;;5080828;28;20043;-57
2022/09/14 12:43:48;;;;;;;5.35;1.65;;;24.70;67.10;;;;;;5107605;27;20047;-57
2022/09/14 12:46:20;;;;;;;5.05;1.15;;;24.60;69.00;;;;;;5095634;28;20112;-56
2022/09/14 12:48:46;;;;;;;4.43;0.80;;;24.20;70.90;;;;;;5099160;27;20058;-57
2022/09/14 12:51:24;;;;;;;3.88;1.20;;;23.90;75.50;;;;;;5098059;28;20047;-56
2022/09/14 12:54:21;;;;;;;4.68;0.88;;;23.70;75.70;;;;;;5118719;27;20549;-57
2022/09/14 12:56:59;;;;;;;3.92;0.95;;;23.50;77.30;;;;;;5092306;28;20048;-58
2022/09/14 12:59:39;;;;;;;4.50;0.82;;;23.30;81.30;;;;;;5096214;28;20047;-57
2022/09/14 13:02:50;;;;;;;5.28;1.00;;;23.00;83.90;;;;;;5078593;28;20350;-57
2022/09/14 13:05:19;;;;;;;4.38;0.98;;;22.70;85.10;;;;;;5090664;28;20074;-57
2022/09/14 13:07:46;;;;;;;4.65;1.00;;;22.80;87.50;;;;;;5087618;28;20054;-57
2022/09/14 13:10:23;;;;;;;4.28;0.85;;;22.80;88.10;;;;;;5103944;27;20159;-56
2022/09/14 13:12:50;;;;;;;4.47;1.25;;;22.90;91.00;;;;;;5095282;28;20055;-58
2022/09/14 13:15:27;;;;;;;5.45;1.00;;;23.00;90.20;;;;;;5091984;28;20063;-57
2022/09/14 13:17:57;;;;;;;3.40;0.90;;;23.70;87.00;;;;;;5080694;28;20406;-58